Time;durP1;ratioP1;P1;durP2;ratioP2;P2;SDS_P1;SDS_P2;PMS_P1;PMS_P2;Temp;Humidity;BMP_temperature;BMP_pressure;BME280_temperature;BME280_humidity;BME280_pressure;Samples;Min_cycle;Max_cycle;Signal;HPM_P1;HPM_P2
2022/03/02 00:00:08;;;;;;;8.73;5.90;;;;;;;;;;4484034;28;20031;-62
2022/03/02 00:02:19;;;;;;;8.05;5.38;;;;;;;;;;4481468;28;20042;-61
2022/03/02 00:04:29;;;;;;;8.17;5.50;;;;;;;;;;4465897;28;20535;-62
2022/03/02 00:06:39;;;;;;;8.30;5.73;;;;;;;;;;4484917;28;20026;-62
2022/03/02 00:08:50;;;;;;;8.60;5.63;;;;;;;;;;4484746;28;20042;-61
2022/03/02 00:11:00;;;;;;;8.77;5.93;;;;;;;;;;4485493;28;20046;-61
2022/03/02 00:13:11;;;;;;;7.93;5.63;;;;;;;;;;4484852;28;20394;-61
2022/03/02 00:15:22;;;;;;;7.95;5.45;;;;;;;;;;4482918;28;21092;-61
2022/03/02 00:17:32;;;;;;;8.23;5.63;;;;;;;;;;4485364;28;20030;-61
2022/03/02 00:19:43;;;;;;;7.93;5.37;;;;;;;;;;4485142;28;20035;-61
2022/03/02 00:21:53;;;;;;;9.03;5.57;;;;;;;;;;4482664;28;20057;-61
2022/03/02 00:24:04;;;;;;;8.13;5.70;;;;;;;;;;4482913;28;20038;-60
2022/03/02 00:26:15;;;;;;;8.50;5.75;;;;;;;;;;4481064;28;20117;-61
2022/03/02 00:28:25;;;;;;;8.50;5.77;;;;;;;;;;4484231;28;20069;-61
2022/03/02 00:30:36;;;;;;;9.20;5.60;;;;;;;;;;4482253;28;20026;-60
2022/03/02 00:32:46;;;;;;;8.07;5.70;;;;;;;;;;4482917;28;20065;-61
2022/03/02 00:34:57;;;;;;;8.10;5.50;;;;;;;;;;4484930;28;35679;-61
2022/03/02 00:37:07;;;;;;;6.23;5.00;;;;;;;;;;4481694;28;29356;-61
2022/03/02 00:39:18;;;;;;;8.47;5.63;;;;;;;;;;4462338;28;20074;-61
2022/03/02 00:41:28;;;;;;;8.67;5.90;;;;;;;;;;4483006;28;20030;-61
2022/03/02 00:43:39;;;;;;;6.97;5.10;;;;;;;;;;4479091;28;33545;-61
2022/03/02 00:45:49;;;;;;;8.93;6.00;;;;;;;;;;4483017;28;20260;-61
2022/03/02 00:48:00;;;;;;;7.43;5.10;;;;;;;;;;4497644;28;20061;-61
2022/03/02 00:50:12;;;;;;;7.40;5.18;;;;;;;;;;4484494;28;20149;-61
2022/03/02 00:52:22;;;;;;;;;;;;;;;;;;4483867;28;20031;-61
2022/03/02 00:54:33;;;;;;;7.35;5.35;;;;;;;;;;4484902;28;20108;-61
2022/03/02 00:56:43;;;;;;;7.67;5.30;;;;;;;;;;4486586;28;20039;-61
2022/03/02 00:58:54;;;;;;;7.00;4.80;;;;;;;;;;4481718;28;20049;-61
2022/03/02 01:01:04;;;;;;;8.90;5.40;;;;;;;;;;4484453;28;20031;-61
2022/03/02 01:03:14;;;;;;;6.73;4.80;;;;;;;;;;4483739;28;20074;-61
2022/03/02 01:05:25;;;;;;;7.83;5.40;;;;;;;;;;4483434;28;20741;-61
2022/03/02 01:07:35;;;;;;;7.87;5.17;;;;;;;;;;4484556;28;20452;-61
2022/03/02 01:09:46;;;;;;;7.97;5.47;;;;;;;;;;4484768;28;20129;-61
2022/03/02 01:11:57;;;;;;;6.90;4.80;;;;;;;;;;4483280;28;20096;-61
2022/03/02 01:14:07;;;;;;;8.07;5.00;;;;;;;;;;4482169;28;20034;-61
2022/03/02 01:16:17;;;;;;;7.67;5.37;;;;;;;;;;4486363;28;20065;-61
2022/03/02 01:18:28;;;;;;;7.67;5.20;;;;;;;;;;4482576;28;20070;-61
2022/03/02 01:20:38;;;;;;;8.33;5.43;;;;;;;;;;4483755;28;20039;-61
2022/03/02 01:22:49;;;;;;;7.30;4.93;;;;;;;;;;4481819;28;20070;-61
2022/03/02 01:25:00;;;;;;;8.43;5.47;;;;;;;;;;4481939;28;20042;-61
2022/03/02 01:27:11;;;;;;;7.43;5.30;;;;;;;;;;4485698;28;20038;-61
2022/03/02 01:29:23;;;;;;;8.03;5.33;;;;;;;;;;4485387;28;20341;-61
2022/03/02 01:31:33;;;;;;;7.78;5.03;;;;;;;;;;4484512;28;20134;-62
2022/03/02 01:33:44;;;;;;;8.07;5.60;;;;;;;;;;4485700;28;20450;-61
2022/03/02 01:35:54;;;;;;;8.57;5.63;;;;;;;;;;4484747;28;20071;-61
2022/03/02 01:38:04;;;;;;;8.57;5.60;;;;;;;;;;4484269;28;23628;-61
2022/03/02 01:40:15;;;;;;;7.13;4.97;;;;;;;;;;4489066;28;20030;-61
2022/03/02 01:42:25;;;;;;;7.73;5.50;;;;;;;;;;4486229;28;20043;-61
2022/03/02 01:44:37;;;;;;;8.93;5.47;;;;;;;;;;4482239;28;20609;-61
2022/03/02 01:46:47;;;;;;;7.28;5.03;;;;;;;;;;4482226;28;20060;-61
2022/03/02 01:48:58;;;;;;;7.20;5.03;;;;;;;;;;4482642;28;20037;-61
2022/03/02 01:51:09;;;;;;;6.50;4.67;;;;;;;;;;4484950;28;20488;-61
2022/03/02 01:53:19;;;;;;;7.27;5.00;;;;;;;;;;4485752;28;20038;-61
2022/03/02 01:55:29;;;;;;;7.97;5.27;;;;;;;;;;4482612;28;20116;-61
2022/03/02 01:57:41;;;;;;;7.57;5.27;;;;;;;;;;4482494;28;20104;-61
2022/03/02 01:59:58;;;;;;;6.97;5.00;;;;;;;;;;4484217;28;20043;-60
2022/03/02 02:02:10;;;;;;;7.63;5.28;;;;;;;;;;4483594;28;20065;-61
2022/03/02 02:04:22;;;;;;;7.77;5.37;;;;;;;;;;4481633;28;20584;-61
2022/03/02 02:06:33;;;;;;;8.20;5.55;;;;;;;;;;4471267;28;20072;-61
2022/03/02 02:08:43;;;;;;;8.87;5.77;;;;;;;;;;4483266;28;20463;-61
2022/03/02 02:10:56;;;;;;;7.53;5.20;;;;;;;;;;4481172;28;20045;-61
2022/03/02 02:13:06;;;;;;;8.10;5.63;;;;;;;;;;4480325;28;20077;-61
2022/03/02 02:15:17;;;;;;;8.03;5.33;;;;;;;;;;4479222;28;44841;-61
2022/03/02 02:17:27;;;;;;;7.87;5.67;;;;;;;;;;4480898;28;20035;-61
2022/03/02 02:19:38;;;;;;;7.40;5.23;;;;;;;;;;4479674;28;20369;-61
2022/03/02 02:21:48;;;;;;;7.90;5.90;;;;;;;;;;4480463;28;20049;-61
2022/03/02 02:23:58;;;;;;;8.00;5.70;;;;;;;;;;4479928;28;20062;-61
2022/03/02 02:26:09;;;;;;;9.13;6.03;;;;;;;;;;4481439;28;20378;-61
2022/03/02 02:28:22;;;;;;;6.67;5.40;;;;;;;;;;4482942;28;20452;-62
2022/03/02 02:30:33;;;;;;;8.27;5.55;;;;;;;;;;4481676;28;20084;-61
2022/03/02 02:32:44;;;;;;;7.60;5.50;;;;;;;;;;4481319;28;45292;-61
2022/03/02 02:34:57;;;;;;;7.57;5.50;;;;;;;;;;4479673;28;20044;-61
2022/03/02 02:37:07;;;;;;;7.63;5.25;;;;;;;;;;4481540;28;20054;-59
2022/03/02 02:39:18;;;;;;;7.60;5.20;;;;;;;;;;4484219;28;20502;-61
2022/03/02 02:41:28;;;;;;;8.47;5.67;;;;;;;;;;4484181;28;20685;-61
2022/03/02 02:43:42;;;;;;;8.87;5.83;;;;;;;;;;4482275;28;20361;-61
2022/03/02 02:45:54;;;;;;;7.80;5.78;;;;;;;;;;4481381;28;20069;-61
2022/03/02 02:48:04;;;;;;;8.43;5.82;;;;;;;;;;4483070;28;20077;-60
2022/03/02 02:50:20;;;;;;;8.33;5.57;;;;;;;;;;4482230;28;20035;-61
2022/03/02 02:52:37;;;;;;;6.70;4.95;;;;;;;;;;4466426;28;20251;-61
2022/03/02 02:54:49;;;;;;;7.97;5.50;;;;;;;;;;4481664;28;21055;-61
2022/03/02 02:57:00;;;;;;;7.53;5.53;;;;;;;;;;4480798;28;20133;-61
2022/03/02 02:59:10;;;;;;;8.00;5.50;;;;;;;;;;4483578;28;20035;-61
2022/03/02 03:01:21;;;;;;;8.70;5.57;;;;;;;;;;4481995;28;20956;-61
2022/03/02 03:03:31;;;;;;;7.23;5.00;;;;;;;;;;4480308;28;20182;-61
2022/03/02 03:05:44;;;;;;;6.40;5.00;;;;;;;;;;4483197;28;20105;-61
2022/03/02 03:07:54;;;;;;;8.18;5.65;;;;;;;;;;4482891;28;20042;-61
2022/03/02 03:10:06;;;;;;;6.93;5.23;;;;;;;;;;4484163;28;20031;-61
2022/03/02 03:12:17;;;;;;;7.35;5.07;;;;;;;;;;4483325;28;20084;-61
2022/03/02 03:14:27;;;;;;;7.43;5.30;;;;;;;;;;4480503;28;20049;-61
2022/03/02 03:16:37;;;;;;;7.53;5.33;;;;;;;;;;4480292;28;20041;-62
2022/03/02 03:18:48;;;;;;;7.90;5.13;;;;;;;;;;4479929;28;28812;-62
2022/03/02 03:20:58;;;;;;;6.87;5.00;;;;;;;;;;4481131;28;42883;-62
2022/03/02 03:23:09;;;;;;;9.07;5.43;;;;;;;;;;4482039;28;20494;-62
2022/03/02 03:25:20;;;;;;;7.57;5.40;;;;;;;;;;4481745;28;20058;-62
2022/03/02 03:27:31;;;;;;;7.63;5.38;;;;;;;;;;4464451;28;20239;-62
2022/03/02 03:29:41;;;;;;;7.63;5.43;;;;;;;;;;4480628;28;20042;-61
2022/03/02 03:31:51;;;;;;;7.03;4.77;;;;;;;;;;4482014;28;20145;-62
2022/03/02 03:34:02;;;;;;;7.40;5.17;;;;;;;;;;4481543;28;20046;-61
2022/03/02 03:36:13;;;;;;;7.27;5.07;;;;;;;;;;4486771;28;34517;-62
2022/03/02 03:38:23;;;;;;;7.27;4.87;;;;;;;;;;4483218;28;21225;-62
2022/03/02 03:40:33;;;;;;;8.10;5.47;;;;;;;;;;4480118;28;20043;-62
2022/03/02 03:42:44;;;;;;;8.77;6.00;;;;;;;;;;4460805;28;20184;-62
2022/03/02 03:44:54;;;;;;;7.53;4.60;;;;;;;;;;4481644;28;20523;-62
2022/03/02 03:47:06;;;;;;;7.47;5.33;;;;;;;;;;4485316;28;20121;-62
2022/03/02 03:49:16;;;;;;;8.57;5.35;;;;;;;;;;4481868;28;20141;-62
2022/03/02 03:51:27;;;;;;;7.53;5.40;;;;;;;;;;4480602;28;20034;-61
2022/03/02 03:53:37;;;;;;;8.30;5.43;;;;;;;;;;4483564;28;20046;-62
2022/03/02 03:55:48;;;;;;;8.73;5.73;;;;;;;;;;4487066;28;20074;-61
2022/03/02 03:57:58;;;;;;;7.83;5.07;;;;;;;;;;4482351;28;20097;-62
2022/03/02 04:00:12;;;;;;;8.13;5.67;;;;;;;;;;4475824;28;43250;-62
2022/03/02 04:02:23;;;;;;;8.35;5.25;;;;;;;;;;4479307;28;20629;-62
2022/03/02 04:04:34;;;;;;;7.80;5.67;;;;;;;;;;4477204;28;39156;-62
2022/03/02 04:06:44;;;;;;;7.97;5.13;;;;;;;;;;4480466;28;20042;-62
2022/03/02 04:08:54;;;;;;;7.40;5.30;;;;;;;;;;4480320;28;20042;-62
2022/03/02 04:11:05;;;;;;;8.77;5.00;;;;;;;;;;4481025;28;20101;-62
2022/03/02 04:13:15;;;;;;;8.00;5.30;;;;;;;;;;4480263;28;20034;-62
2022/03/02 04:15:26;;;;;;;7.53;5.23;;;;;;;;;;4481989;28;20552;-62
2022/03/02 04:17:36;;;;;;;7.00;4.90;;;;;;;;;;4479575;28;20057;-62
2022/03/02 04:19:47;;;;;;;5.97;4.57;;;;;;;;;;4480983;28;20514;-62
2022/03/02 04:21:57;;;;;;;6.17;4.37;;;;;;;;;;4481163;28;20038;-62
2022/03/02 04:24:08;;;;;;;7.50;5.17;;;;;;;;;;4483919;28;20038;-63
2022/03/02 04:26:18;;;;;;;6.93;4.97;;;;;;;;;;4489812;28;20098;-62
2022/03/02 04:28:29;;;;;;;7.07;5.10;;;;;;;;;;4484010;28;20039;-60
2022/03/02 04:30:39;;;;;;;8.20;5.30;;;;;;;;;;4483307;28;20061;-62
2022/03/02 04:32:50;;;;;;;6.57;4.50;;;;;;;;;;4481756;28;20031;-62
2022/03/02 04:35:00;;;;;;;6.07;4.70;;;;;;;;;;4483774;28;20041;-63
2022/03/02 04:37:11;;;;;;;6.17;4.20;;;;;;;;;;4484611;28;20073;-62
2022/03/02 04:39:21;;;;;;;6.37;4.50;;;;;;;;;;4484882;28;20097;-62
2022/03/02 04:41:32;;;;;;;6.07;4.23;;;;;;;;;;4482275;28;20734;-62
2022/03/02 04:43:43;;;;;;;7.40;4.63;;;;;;;;;;4484796;28;20042;-62
2022/03/02 04:45:53;;;;;;;7.05;4.80;;;;;;;;;;4482808;28;20072;-62
2022/03/02 04:48:04;;;;;;;7.80;5.00;;;;;;;;;;4484762;28;20127;-62
2022/03/02 04:50:16;;;;;;;7.47;5.17;;;;;;;;;;4481498;28;20038;-62
2022/03/02 04:52:26;;;;;;;6.95;4.85;;;;;;;;;;4484471;28;20039;-62
2022/03/02 04:57:07;;;;;;;7.55;4.85;;;;;;;;;;4484453;28;20133;-62
2022/03/02 04:59:17;;;;;;;;;;;;;;;;;;4486287;28;20034;-63
2022/03/02 05:01:28;;;;;;;6.65;4.95;;;;;;;;;;4484094;28;19921;-62
2022/03/02 05:03:38;;;;;;;7.17;4.87;;;;;;;;;;4484368;28;20581;-62
2022/03/02 05:05:49;;;;;;;6.43;4.63;;;;;;;;;;4483531;28;20030;-62
2022/03/02 05:07:59;;;;;;;6.63;4.70;;;;;;;;;;4482904;28;20053;-62
2022/03/02 05:10:12;;;;;;;6.33;4.30;;;;;;;;;;4483518;28;29873;-63
2022/03/02 05:12:22;;;;;;;7.20;4.40;;;;;;;;;;4499518;28;20562;-62
2022/03/02 05:14:32;;;;;;;7.80;5.03;;;;;;;;;;4482995;28;25766;-63
2022/03/02 05:16:43;;;;;;;5.83;4.17;;;;;;;;;;4479857;28;38450;-61
2022/03/02 05:18:53;;;;;;;7.13;4.47;;;;;;;;;;4482966;28;36419;-61
2022/03/02 05:21:04;;;;;;;6.43;4.57;;;;;;;;;;4482350;28;26786;-61
2022/03/02 05:23:14;;;;;;;6.87;4.67;;;;;;;;;;4483574;28;20038;-61
2022/03/02 05:25:25;;;;;;;6.63;4.27;;;;;;;;;;4483828;28;20065;-61
2022/03/02 05:27:36;;;;;;;7.20;4.57;;;;;;;;;;4484131;28;20031;-61
2022/03/02 05:29:46;;;;;;;6.70;4.50;;;;;;;;;;4483156;28;20066;-61
2022/03/02 05:31:57;;;;;;;6.40;4.33;;;;;;;;;;4483618;28;20077;-61
2022/03/02 05:34:07;;;;;;;6.73;4.57;;;;;;;;;;4483464;28;20034;-61
2022/03/02 05:36:18;;;;;;;6.87;4.63;;;;;;;;;;4484295;28;37130;-61
2022/03/02 05:38:29;;;;;;;6.88;4.65;;;;;;;;;;4482076;28;20038;-61
2022/03/02 05:40:39;;;;;;;7.23;4.80;;;;;;;;;;4485844;28;45095;-61
2022/03/02 05:42:50;;;;;;;7.83;4.70;;;;;;;;;;4481805;28;20054;-61
2022/03/02 05:45:00;;;;;;;6.13;4.27;;;;;;;;;;4483608;28;20487;-61
2022/03/02 05:47:11;;;;;;;7.03;4.70;;;;;;;;;;4480811;28;20038;-61
2022/03/02 05:49:21;;;;;;;7.97;5.00;;;;;;;;;;4482544;28;39299;-61
2022/03/02 05:51:31;;;;;;;7.10;4.93;;;;;;;;;;4483578;28;20034;-62
2022/03/02 05:53:42;;;;;;;6.80;4.70;;;;;;;;;;4481307;28;20069;-61
2022/03/02 05:55:52;;;;;;;6.97;4.73;;;;;;;;;;4483336;28;20164;-61
2022/03/02 05:58:03;;;;;;;8.10;5.10;;;;;;;;;;4478402;28;20053;-61
2022/03/02 06:00:13;;;;;;;7.03;4.50;;;;;;;;;;4481257;28;20149;-62
2022/03/02 06:02:24;;;;;;;7.53;4.80;;;;;;;;;;4480667;28;20545;-61
2022/03/02 06:04:34;;;;;;;6.23;4.87;;;;;;;;;;4482165;28;20067;-61
2022/03/02 06:06:45;;;;;;;6.43;4.60;;;;;;;;;;4482980;28;20035;-62
2022/03/02 06:08:56;;;;;;;6.47;4.47;;;;;;;;;;4482804;28;20034;-61
2022/03/02 06:11:06;;;;;;;6.77;4.43;;;;;;;;;;4466232;28;20113;-62
2022/03/02 06:13:17;;;;;;;5.87;4.10;;;;;;;;;;4481938;28;20125;-62
2022/03/02 06:15:28;;;;;;;5.77;4.10;;;;;;;;;;4483695;28;20026;-62
2022/03/02 06:17:39;;;;;;;7.33;4.73;;;;;;;;;;4483593;28;20233;-62
2022/03/02 06:19:50;;;;;;;7.00;4.53;;;;;;;;;;4471235;28;20231;-62
2022/03/02 06:22:02;;;;;;;6.40;4.60;;;;;;;;;;4479646;28;20129;-62
2022/03/02 06:24:14;;;;;;;6.82;4.40;;;;;;;;;;4484700;28;20125;-62
2022/03/02 06:26:26;;;;;;;7.82;4.68;;;;;;;;;;4480278;28;20030;-62
2022/03/02 06:28:36;;;;;;;;;;;;;;;;;;4482470;28;20030;-62
2022/03/02 06:30:46;;;;;;;5.57;4.13;;;;;;;;;;4484540;28;31303;-62
2022/03/02 06:32:57;;;;;;;6.27;4.70;;;;;;;;;;4484735;28;20376;-62
2022/03/02 06:35:08;;;;;;;7.50;4.53;;;;;;;;;;4482547;28;20062;-62
2022/03/02 06:37:18;;;;;;;7.17;4.60;;;;;;;;;;4484183;28;20388;-62
2022/03/02 06:39:28;;;;;;;6.33;4.60;;;;;;;;;;4468768;28;20041;-61
2022/03/02 06:42:18;;;;;;;7.00;4.23;;;;;;;;;;4482523;28;20503;-62
2022/03/02 06:44:34;;;;;;;7.13;4.93;;;;;;;;;;4473595;28;20137;-62
2022/03/02 06:46:56;;;;;;;6.80;4.65;;;;;;;;;;4479268;28;20775;-63
2022/03/02 06:49:51;;;;;;;6.03;4.47;;;;;;;;;;4480305;28;20113;-62
2022/03/02 06:52:03;;;;;;;6.70;4.85;;;;;;;;;;4478013;28;20046;-62
2022/03/02 06:54:14;;;;;;;6.93;4.70;;;;;;;;;;4479910;28;20024;-62
2022/03/02 06:56:27;;;;;;;7.20;4.55;;;;;;;;;;4478359;28;20041;-62
2022/03/02 06:58:55;;;;;;;6.30;4.25;;;;;;;;;;4479225;28;20035;-62
2022/03/02 07:01:08;;;;;;;7.15;4.55;;;;;;;;;;4480747;28;20665;-61
2022/03/02 07:03:20;;;;;;;6.70;4.60;;;;;;;;;;4480600;28;20050;-62
2022/03/02 07:05:30;;;;;;;6.57;4.35;;;;;;;;;;4477477;28;20114;-62
2022/03/02 07:07:41;;;;;;;7.10;4.90;;;;;;;;;;4481228;28;20366;-62
2022/03/02 07:09:52;;;;;;;6.57;4.70;;;;;;;;;;4481990;28;20039;-62
2022/03/02 07:12:05;;;;;;;5.73;4.03;;;;;;;;;;4479533;28;20120;-62
2022/03/02 07:14:16;;;;;;;5.78;4.07;;;;;;;;;;4477609;28;20039;-62
2022/03/02 07:16:26;;;;;;;6.90;4.73;;;;;;;;;;4481050;28;20069;-62
2022/03/02 07:18:37;;;;;;;6.87;4.47;;;;;;;;;;4480573;28;20034;-64
2022/03/02 07:20:50;;;;;;;7.40;4.57;;;;;;;;;;4477905;28;20041;-62
2022/03/02 07:23:02;;;;;;;6.63;4.15;;;;;;;;;;4478505;28;20532;-63
2022/03/02 07:25:15;;;;;;;6.68;4.50;;;;;;;;;;4479803;28;20102;-62
2022/03/02 07:27:26;;;;;;;6.53;4.10;;;;;;;;;;4479615;28;20031;-62
2022/03/02 07:29:36;;;;;;;6.25;3.88;;;;;;;;;;4487019;28;20046;-61
2022/03/02 07:31:48;;;;;;;6.80;4.23;;;;;;;;;;4481574;28;20038;-62
2022/03/02 07:33:58;;;;;;;;;;;;;;;;;;4481176;28;20569;-62
2022/03/02 07:36:10;;;;;;;6.82;4.57;;;;;;;;;;4479730;28;19925;-62
2022/03/02 07:38:21;;;;;;;6.13;4.60;;;;;;;;;;4481431;28;20590;-62
2022/03/02 07:40:32;;;;;;;7.23;4.70;;;;;;;;;;4482490;28;20026;-62
2022/03/02 07:42:44;;;;;;;6.68;4.32;;;;;;;;;;4480906;28;20089;-61
2022/03/02 07:44:55;;;;;;;6.63;4.20;;;;;;;;;;4481267;28;20039;-62
2022/03/02 07:47:05;;;;;;;7.43;4.67;;;;;;;;;;4478578;28;20026;-62
2022/03/02 07:49:15;;;;;;;5.60;4.13;;;;;;;;;;4480446;28;20121;-64
2022/03/02 07:51:26;;;;;;;6.40;4.47;;;;;;;;;;4482377;28;20035;-62
2022/03/02 07:53:41;;;;;;;6.28;4.38;;;;;;;;;;4478530;28;20031;-61
2022/03/02 07:55:53;;;;;;;6.90;4.70;;;;;;;;;;4482560;28;20658;-61
2022/03/02 07:58:04;;;;;;;8.10;4.65;;;;;;;;;;4486496;28;20031;-62
2022/03/02 08:00:15;;;;;;;6.77;4.43;;;;;;;;;;4484806;28;20421;-62
2022/03/02 08:02:25;;;;;;;7.27;4.73;;;;;;;;;;4484092;28;20612;-62
2022/03/02 08:04:36;;;;;;;7.43;4.90;;;;;;;;;;4489877;28;20034;-62
2022/03/02 08:06:47;;;;;;;7.80;4.83;;;;;;;;;;4484332;28;21115;-62
2022/03/02 08:08:58;;;;;;;7.18;4.80;;;;;;;;;;4478650;28;20130;-62
2022/03/02 08:11:08;;;;;;;7.20;5.07;;;;;;;;;;4483746;28;35717;-62
2022/03/02 08:13:19;;;;;;;7.57;5.20;;;;;;;;;;4486415;28;20061;-62
2022/03/02 08:15:30;;;;;;;7.97;5.18;;;;;;;;;;4482768;28;20515;-61
2022/03/02 08:17:42;;;;;;;6.20;4.70;;;;;;;;;;4484993;28;20093;-61
2022/03/02 08:19:53;;;;;;;7.10;4.68;;;;;;;;;;4484569;28;20043;-62
2022/03/02 08:22:13;;;;;;;6.33;4.20;;;;;;;;;;4484529;28;20471;-62
2022/03/02 08:24:28;;;;;;;6.35;4.28;;;;;;;;;;4486065;28;20043;-63
2022/03/02 08:26:39;;;;;;;8.38;4.30;;;;;;;;;;4485821;28;20048;-62
2022/03/02 08:28:55;;;;;;;6.63;4.30;;;;;;;;;;4484324;28;20044;-62
2022/03/02 08:31:06;;;;;;;6.93;4.55;;;;;;;;;;4485746;28;20030;-62
2022/03/02 08:33:25;;;;;;;6.03;4.10;;;;;;;;;;4484896;28;21297;-63
2022/03/02 08:35:39;;;;;;;6.32;4.38;;;;;;;;;;4484734;28;20506;-62
2022/03/02 08:37:49;;;;;;;6.70;4.50;;;;;;;;;;4489509;28;20147;-62
2022/03/02 08:39:59;;;;;;;5.10;3.83;;;;;;;;;;4482296;28;29537;-62
2022/03/02 08:42:11;;;;;;;5.73;4.03;;;;;;;;;;4483731;28;20039;-62
2022/03/02 08:44:22;;;;;;;6.40;4.43;;;;;;;;;;4485531;28;20590;-62
2022/03/02 08:46:33;;;;;;;6.28;4.43;;;;;;;;;;4481181;28;20054;-62
2022/03/02 08:48:43;;;;;;;6.65;4.40;;;;;;;;;;4483462;28;20039;-62
2022/03/02 08:50:57;;;;;;;6.30;4.30;;;;;;;;;;4485541;28;20050;-71
2022/03/02 08:53:10;;;;;;;6.25;4.43;;;;;;;;;;4486670;28;20038;-75
2022/03/02 08:55:21;;;;;;;6.07;4.10;;;;;;;;;;4484924;28;20575;-69
2022/03/02 08:57:34;;;;;;;7.00;4.27;;;;;;;;;;4469667;28;20039;-76
2022/03/02 08:59:45;;;;;;;6.50;4.18;;;;;;;;;;4484898;28;21276;-77
2022/03/02 09:01:55;;;;;;;6.67;4.23;;;;;;;;;;4488010;28;20042;-62
2022/03/02 09:04:06;;;;;;;7.43;4.30;;;;;;;;;;4485768;28;20266;-62
2022/03/02 09:06:21;;;;;;;5.65;3.97;;;;;;;;;;4483829;28;20589;-61
2022/03/02 09:08:32;;;;;;;5.60;3.78;;;;;;;;;;4482624;28;20053;-62
2022/03/02 09:10:44;;;;;;;6.88;3.70;;;;;;;;;;4482391;28;20791;-61
2022/03/02 09:12:56;;;;;;;5.50;3.85;;;;;;;;;;4481386;28;20030;-61
2022/03/02 09:15:07;;;;;;;5.63;4.00;;;;;;;;;;4482827;28;20038;-60
2022/03/02 09:17:24;;;;;;;4.97;3.60;;;;;;;;;;4483549;28;20616;-62
2022/03/02 09:19:35;;;;;;;6.18;4.15;;;;;;;;;;4480591;28;20049;-62
2022/03/02 09:21:46;;;;;;;5.90;3.80;;;;;;;;;;4483077;28;20070;-61
2022/03/02 09:23:56;;;;;;;5.10;3.60;;;;;;;;;;4482412;28;20035;-62
2022/03/02 09:26:13;;;;;;;5.50;3.60;;;;;;;;;;4482821;28;20034;-62
2022/03/02 09:28:26;;;;;;;5.65;3.92;;;;;;;;;;4482707;28;20065;-62
2022/03/02 09:30:37;;;;;;;5.85;3.70;;;;;;;;;;4488752;28;20137;-62
2022/03/02 09:32:52;;;;;;;5.47;3.72;;;;;;;;;;4482861;28;20085;-62
2022/03/02 09:35:02;;;;;;;6.63;4.18;;;;;;;;;;4486595;28;20069;-62
2022/03/02 09:37:14;;;;;;;6.13;4.20;;;;;;;;;;4470841;28;20858;-62
2022/03/02 09:39:26;;;;;;;4.70;3.55;;;;;;;;;;4482624;28;20066;-62
2022/03/02 09:41:54;;;;;;;5.10;3.38;;;;;;;;;;4484020;28;20026;-62
2022/03/02 09:44:06;;;;;;;6.22;3.85;;;;;;;;;;4484530;28;20093;-62
2022/03/02 09:46:18;;;;;;;5.50;3.55;;;;;;;;;;4477252;28;20034;-62
2022/03/02 09:48:31;;;;;;;5.95;3.60;;;;;;;;;;4487985;28;20125;-61
2022/03/02 09:50:41;;;;;;;5.03;3.40;;;;;;;;;;4472299;28;20049;-61
2022/03/02 09:52:54;;;;;;;5.40;3.70;;;;;;;;;;4482402;28;20042;-61
2022/03/02 09:55:09;;;;;;;5.03;3.45;;;;;;;;;;4484434;28;20042;-62
2022/03/02 09:57:21;;;;;;;5.57;3.92;;;;;;;;;;4480986;28;20125;-62
2022/03/02 09:59:42;;;;;;;4.82;3.33;;;;;;;;;;4488940;28;20038;-62
2022/03/02 10:01:53;;;;;;;5.53;3.80;;;;;;;;;;4471705;28;20027;-62
2022/03/02 10:04:22;;;;;;;5.22;3.50;;;;;;;;;;4481235;28;20039;-62
2022/03/02 10:06:36;;;;;;;4.88;3.53;;;;;;;;;;4483002;28;20042;-62
2022/03/02 10:08:49;;;;;;;5.47;3.53;;;;;;;;;;4472114;28;20043;-61
2022/03/02 10:11:04;;;;;;;5.68;3.60;;;;;;;;;;4480000;28;20039;-62
2022/03/02 10:13:16;;;;;;;4.68;3.30;;;;;;;;;;4482570;28;20066;-62
2022/03/02 10:15:28;;;;;;;6.25;3.95;;;;;;;;;;4482313;28;20047;-62
2022/03/02 10:17:41;;;;;;;6.13;3.67;;;;;;;;;;4486424;28;20042;-62
2022/03/02 10:19:55;;;;;;;5.22;3.50;;;;;;;;;;4482938;28;20084;-61
2022/03/02 10:22:51;;;;;;;4.05;3.10;;;;;;;;;;4458216;28;20090;-61
2022/03/02 10:25:05;;;;;;;5.40;3.38;;;;;;;;;;4478890;28;20077;-62
2022/03/02 10:28:00;;;;;;;5.32;3.50;;;;;;;;;;4481964;28;20161;-62
2022/03/02 10:30:11;;;;;;;4.47;3.22;;;;;;;;;;4477451;28;20054;-62
2022/03/02 10:32:23;;;;;;;4.65;3.20;;;;;;;;;;4481004;28;20792;-62
2022/03/02 10:34:38;;;;;;;4.85;3.15;;;;;;;;;;4480982;28;20541;-62
2022/03/02 10:36:51;;;;;;;4.53;3.13;;;;;;;;;;4481025;28;20022;-62
2022/03/02 10:39:05;;;;;;;4.85;2.90;;;;;;;;;;4483004;28;20042;-62
2022/03/02 10:41:20;;;;;;;5.15;3.20;;;;;;;;;;4482087;28;20049;-62
2022/03/02 10:43:40;;;;;;;4.78;3.25;;;;;;;;;;4481126;28;20733;-62
2022/03/02 10:45:51;;;;;;;4.90;3.38;;;;;;;;;;4482801;28;20569;-62
2022/03/02 10:48:13;;;;;;;5.47;3.30;;;;;;;;;;4482848;28;20637;-62
2022/03/02 10:50:26;;;;;;;5.45;3.33;;;;;;;;;;4484228;28;20034;-62
2022/03/02 10:52:38;;;;;;;5.13;3.30;;;;;;;;;;4487492;28;21085;-62
2022/03/02 10:54:49;;;;;;;5.63;3.30;;;;;;;;;;4475963;28;20030;-62
2022/03/02 10:57:02;;;;;;;5.57;3.70;;;;;;;;;;4487620;28;20030;-62
2022/03/02 10:59:17;;;;;;;5.00;3.40;;;;;;;;;;4484188;28;20041;-63
2022/03/02 11:01:28;;;;;;;5.50;3.80;;;;;;;;;;4473761;28;20038;-62
2022/03/02 11:03:38;;;;;;;4.73;3.30;;;;;;;;;;4479396;28;20511;-63
2022/03/02 11:05:50;;;;;;;5.33;3.40;;;;;;;;;;4484607;28;20035;-62
2022/03/02 11:08:01;;;;;;;4.28;3.28;;;;;;;;;;4481066;28;20037;-62
2022/03/02 11:10:13;;;;;;;5.03;3.20;;;;;;;;;;4481383;28;20081;-62
2022/03/02 11:12:25;;;;;;;3.80;3.15;;;;;;;;;;4482632;28;20171;-62
2022/03/02 11:14:35;;;;;;;4.22;3.20;;;;;;;;;;4481694;28;20125;-62
2022/03/02 11:16:47;;;;;;;4.60;3.43;;;;;;;;;;4478192;28;25723;-62
2022/03/02 11:19:12;;;;;;;5.07;3.45;;;;;;;;;;4481588;28;20089;-62
2022/03/02 11:21:29;;;;;;;4.85;3.35;;;;;;;;;;4479574;28;20089;-62
2022/03/02 11:23:45;;;;;;;4.78;3.22;;;;;;;;;;4483479;28;20057;-62
2022/03/02 11:26:05;;;;;;;6.35;3.72;;;;;;;;;;4480074;28;20046;-62
2022/03/02 11:28:21;;;;;;;5.05;3.13;;;;;;;;;;4482308;28;20038;-62
2022/03/02 11:30:32;;;;;;;4.82;3.15;;;;;;;;;;4481861;28;20113;-62
2022/03/02 11:32:47;;;;;;;4.67;3.50;;;;;;;;;;4481106;28;20030;-63
2022/03/02 11:34:58;;;;;;;4.53;3.40;;;;;;;;;;4482853;28;20042;-62
2022/03/02 11:37:09;;;;;;;4.82;3.40;;;;;;;;;;4483563;28;20133;-62
2022/03/02 11:39:24;;;;;;;4.23;3.20;;;;;;;;;;4482182;28;20043;-62
2022/03/02 11:41:38;;;;;;;4.65;3.38;;;;;;;;;;4483717;28;20643;-62
2022/03/02 11:43:48;;;;;;;4.72;3.17;;;;;;;;;;4484101;28;20030;-62
2022/03/02 11:46:07;;;;;;;5.10;3.13;;;;;;;;;;4485685;28;20034;-62
2022/03/02 11:48:20;;;;;;;4.80;3.40;;;;;;;;;;4486857;28;20603;-62
2022/03/02 11:50:31;;;;;;;3.88;3.10;;;;;;;;;;4485240;28;20042;-62
2022/03/02 11:52:46;;;;;;;5.38;3.40;;;;;;;;;;4482571;28;20047;-62
2022/03/02 11:55:00;;;;;;;4.93;3.20;;;;;;;;;;4485049;28;20037;-62
2022/03/02 11:57:10;;;;;;;5.32;3.35;;;;;;;;;;4482825;28;20034;-62
2022/03/02 11:59:21;;;;;;;3.73;3.03;;;;;;;;;;4484248;28;20394;-62
2022/03/02 12:01:50;;;;;;;4.83;3.43;;;;;;;;;;4482572;28;20035;-62
2022/03/02 12:04:03;;;;;;;5.57;3.45;;;;;;;;;;4486340;28;20042;-63
2022/03/02 12:06:17;;;;;;;5.65;3.20;;;;;;;;;;4484344;28;20525;-62
2022/03/02 12:08:32;;;;;;;4.32;3.25;;;;;;;;;;4485071;28;20640;-62
2022/03/02 12:10:52;;;;;;;4.47;3.30;;;;;;;;;;4484432;28;20074;-62
2022/03/02 12:13:03;;;;;;;4.57;3.20;;;;;;;;;;4482907;28;20032;-62
2022/03/02 12:15:14;;;;;;;4.67;3.10;;;;;;;;;;4486049;28;20029;-63
2022/03/02 12:17:33;;;;;;;4.93;3.27;;;;;;;;;;4471959;28;20047;-62
2022/03/02 12:19:50;;;;;;;3.75;2.97;;;;;;;;;;4485293;28;20038;-62
2022/03/02 12:22:03;;;;;;;4.35;3.00;;;;;;;;;;4480513;28;20178;-62
2022/03/02 12:24:32;;;;;;;3.95;2.67;;;;;;;;;;4483799;28;20026;-63
2022/03/02 12:26:49;;;;;;;4.45;3.35;;;;;;;;;;4483927;28;20041;-62
2022/03/02 12:28:59;;;;;;;4.88;3.35;;;;;;;;;;4485568;28;20605;-63
2022/03/02 12:31:12;;;;;;;4.50;3.40;;;;;;;;;;4483831;28;20100;-62
2022/03/02 12:33:23;;;;;;;4.60;3.22;;;;;;;;;;4483683;28;20062;-62
2022/03/02 12:35:35;;;;;;;4.50;3.40;;;;;;;;;;4488485;28;20041;-62
2022/03/02 12:37:45;;;;;;;;;;;;;;;;;;4483881;28;20093;-62
2022/03/02 12:39:56;;;;;;;4.50;3.20;;;;;;;;;;4484421;28;20571;-62
2022/03/02 12:42:08;;;;;;;3.57;3.00;;;;;;;;;;4484856;28;20523;-62
2022/03/02 12:44:19;;;;;;;4.05;3.00;;;;;;;;;;4481536;28;20495;-62
2022/03/02 12:46:30;;;;;;;4.97;3.30;;;;;;;;;;4489910;28;20160;-62
2022/03/02 12:48:40;;;;;;;4.00;2.67;;;;;;;;;;4483263;28;20069;-62
2022/03/02 12:50:51;;;;;;;5.93;3.30;;;;;;;;;;4483937;28;20134;-62
2022/03/02 12:53:02;;;;;;;4.35;3.03;;;;;;;;;;4482545;28;20424;-62
2022/03/02 12:55:15;;;;;;;4.90;3.30;;;;;;;;;;4483547;28;20022;-62
2022/03/02 12:57:30;;;;;;;4.00;3.25;;;;;;;;;;4482700;28;20110;-62
2022/03/02 12:59:41;;;;;;;5.38;3.38;;;;;;;;;;4481937;28;20966;-62
2022/03/02 13:01:52;;;;;;;4.07;3.00;;;;;;;;;;4482674;28;20114;-62
2022/03/02 13:04:03;;;;;;;4.70;3.40;;;;;;;;;;4481606;28;20126;-62
2022/03/02 13:06:32;;;;;;;4.72;3.47;;;;;;;;;;4483216;28;20034;-62
2022/03/02 13:08:54;;;;;;;4.63;3.00;;;;;;;;;;4486943;28;20514;-62
2022/03/02 13:11:04;;;;;;;4.10;3.05;;;;;;;;;;4485359;28;20065;-62
2022/03/02 13:13:37;;;;;;;3.70;2.87;;;;;;;;;;4485163;28;20522;-62
2022/03/02 13:15:49;;;;;;;4.85;3.15;;;;;;;;;;4489582;28;20041;-62
2022/03/02 13:18:09;;;;;;;3.85;3.00;;;;;;;;;;4484749;28;20047;-62